sensor_id;sensor_type;location;lat;lon;timestamp;P1;durP1;ratioP1;P2;durP2;ratioP2
82560;SDS011;72228;51.208;10.468;2024-03-02T00:00:22;32.13;;;13.70;;
82560;SDS011;72228;51.208;10.468;2024-03-02T00:02:50;25.02;;;11.90;;
82560;SDS011;72228;51.208;10.468;2024-03-02T00:05:18;37.20;;;12.90;;
82560;SDS011;72228;51.208;10.468;2024-03-02T00:10:16;29.50;;;12.55;;
82560;SDS011;72228;51.208;10.468;2024-03-02T00:12:45;31.08;;;12.63;;
82560;SDS011;72228;51.208;10.468;2024-03-02T00:17:58;27.48;;;12.68;;
82560;SDS011;72228;51.208;10.468;2024-03-02T00:20:24;27.33;;;12.57;;
82560;SDS011;72228;51.208;10.468;2024-03-02T00:23:10;28.35;;;12.05;;
82560;SDS011;72228;51.208;10.468;2024-03-02T00:25:44;31.27;;;13.95;;
82560;SDS011;72228;51.208;10.468;2024-03-02T00:28:23;26.83;;;12.45;;
82560;SDS011;72228;51.208;10.468;2024-03-02T00:33:24;31.08;;;13.32;;
82560;SDS011;72228;51.208;10.468;2024-03-02T00:35:53;29.13;;;12.35;;
82560;SDS011;72228;51.208;10.468;2024-03-02T00:38:19;26.15;;;12.50;;
82560;SDS011;72228;51.208;10.468;2024-03-02T00:40:45;30.63;;;13.73;;
82560;SDS011;72228;51.208;10.468;2024-03-02T00:46:01;33.15;;;12.57;;
82560;SDS011;72228;51.208;10.468;2024-03-02T00:48:27;33.15;;;13.20;;
82560;SDS011;72228;51.208;10.468;2024-03-02T00:50:56;25.50;;;11.18;;
82560;SDS011;72228;51.208;10.468;2024-03-02T00:53:23;27.88;;;12.57;;
82560;SDS011;72228;51.208;10.468;2024-03-02T00:55:52;32.80;;;13.30;;
82560;SDS011;72228;51.208;10.468;2024-03-02T00:58:17;28.13;;;12.50;;
82560;SDS011;72228;51.208;10.468;2024-03-02T01:00:43;33.53;;;12.60;;
82560;SDS011;72228;51.208;10.468;2024-03-02T01:03:09;26.30;;;12.57;;
82560;SDS011;72228;51.208;10.468;2024-03-02T01:05:36;27.80;;;12.55;;
82560;SDS011;72228;51.208;10.468;2024-03-02T01:08:02;23.63;;;11.93;;
82560;SDS011;72228;51.208;10.468;2024-03-02T01:10:28;24.65;;;11.27;;
82560;SDS011;72228;51.208;10.468;2024-03-02T01:12:54;23.67;;;11.15;;
82560;SDS011;72228;51.208;10.468;2024-03-02T01:15:20;27.02;;;12.40;;
82560;SDS011;72228;51.208;10.468;2024-03-02T01:17:46;24.80;;;11.70;;
82560;SDS011;72228;51.208;10.468;2024-03-02T01:20:12;37.70;;;13.30;;
82560;SDS011;72228;51.208;10.468;2024-03-02T01:22:38;26.00;;;12.25;;
82560;SDS011;72228;51.208;10.468;2024-03-02T01:25:03;26.98;;;12.15;;
82560;SDS011;72228;51.208;10.468;2024-03-02T01:27:30;30.88;;;12.82;;
82560;SDS011;72228;51.208;10.468;2024-03-02T01:29:56;27.58;;;12.40;;
82560;SDS011;72228;51.208;10.468;2024-03-02T01:32:21;26.98;;;12.35;;
82560;SDS011;72228;51.208;10.468;2024-03-02T01:34:47;28.98;;;12.10;;
82560;SDS011;72228;51.208;10.468;2024-03-02T01:37:13;28.92;;;11.38;;
82560;SDS011;72228;51.208;10.468;2024-03-02T01:39:39;28.98;;;13.50;;
82560;SDS011;72228;51.208;10.468;2024-03-02T01:42:05;30.33;;;13.27;;
82560;SDS011;72228;51.208;10.468;2024-03-02T01:44:31;25.20;;;11.40;;
82560;SDS011;72228;51.208;10.468;2024-03-02T01:46:57;24.35;;;12.85;;
82560;SDS011;72228;51.208;10.468;2024-03-02T01:49:23;26.35;;;12.35;;
82560;SDS011;72228;51.208;10.468;2024-03-02T01:51:49;27.13;;;11.27;;
82560;SDS011;72228;51.208;10.468;2024-03-02T01:54:14;25.67;;;11.85;;
82560;SDS011;72228;51.208;10.468;2024-03-02T01:56:40;33.55;;;12.82;;
82560;SDS011;72228;51.208;10.468;2024-03-02T01:59:06;25.00;;;12.07;;
82560;SDS011;72228;51.208;10.468;2024-03-02T02:01:32;25.63;;;12.52;;
82560;SDS011;72228;51.208;10.468;2024-03-02T02:03:58;26.77;;;11.85;;
82560;SDS011;72228;51.208;10.468;2024-03-02T02:06:24;29.23;;;11.95;;
82560;SDS011;72228;51.208;10.468;2024-03-02T02:08:50;28.08;;;12.48;;
82560;SDS011;72228;51.208;10.468;2024-03-02T02:11:16;29.10;;;12.93;;
82560;SDS011;72228;51.208;10.468;2024-03-02T02:13:42;35.75;;;13.90;;
82560;SDS011;72228;51.208;10.468;2024-03-02T02:16:08;32.17;;;13.68;;
82560;SDS011;72228;51.208;10.468;2024-03-02T02:18:34;33.83;;;13.30;;
82560;SDS011;72228;51.208;10.468;2024-03-02T02:21:01;31.63;;;13.85;;
82560;SDS011;72228;51.208;10.468;2024-03-02T02:23:27;30.67;;;13.18;;
82560;SDS011;72228;51.208;10.468;2024-03-02T02:25:53;23.05;;;11.68;;
82560;SDS011;72228;51.208;10.468;2024-03-02T02:28:20;28.65;;;10.82;;
82560;SDS011;72228;51.208;10.468;2024-03-02T02:30:46;30.60;;;13.60;;
82560;SDS011;72228;51.208;10.468;2024-03-02T02:33:11;27.50;;;12.52;;
82560;SDS011;72228;51.208;10.468;2024-03-02T02:35:37;31.27;;;11.85;;
82560;SDS011;72228;51.208;10.468;2024-03-02T02:38:03;28.77;;;11.73;;
82560;SDS011;72228;51.208;10.468;2024-03-02T02:40:30;25.02;;;11.57;;
82560;SDS011;72228;51.208;10.468;2024-03-02T02:42:56;25.48;;;11.63;;
82560;SDS011;72228;51.208;10.468;2024-03-02T02:45:22;27.40;;;13.43;;
82560;SDS011;72228;51.208;10.468;2024-03-02T02:47:49;27.77;;;12.07;;
82560;SDS011;72228;51.208;10.468;2024-03-02T02:50:15;29.27;;;11.63;;
82560;SDS011;72228;51.208;10.468;2024-03-02T02:52:41;26.00;;;13.30;;
82560;SDS011;72228;51.208;10.468;2024-03-02T02:55:08;26.23;;;11.57;;
82560;SDS011;72228;51.208;10.468;2024-03-02T02:57:36;24.42;;;11.63;;
82560;SDS011;72228;51.208;10.468;2024-03-02T03:02:44;27.13;;;12.43;;
82560;SDS011;72228;51.208;10.468;2024-03-02T03:05:29;27.75;;;12.73;;
82560;SDS011;72228;51.208;10.468;2024-03-02T03:07:55;25.15;;;11.85;;
82560;SDS011;72228;51.208;10.468;2024-03-02T03:10:21;27.55;;;13.38;;
82560;SDS011;72228;51.208;10.468;2024-03-02T03:12:48;28.65;;;12.60;;
82560;SDS011;72228;51.208;10.468;2024-03-02T03:15:14;27.02;;;12.75;;
82560;SDS011;72228;51.208;10.468;2024-03-02T03:17:41;26.90;;;13.35;;
82560;SDS011;72228;51.208;10.468;2024-03-02T03:20:07;27.45;;;11.25;;
82560;SDS011;72228;51.208;10.468;2024-03-02T03:22:39;29.13;;;12.25;;
82560;SDS011;72228;51.208;10.468;2024-03-02T03:25:05;22.85;;;10.82;;
82560;SDS011;72228;51.208;10.468;2024-03-02T03:27:33;24.20;;;12.48;;
82560;SDS011;72228;51.208;10.468;2024-03-02T03:29:59;26.33;;;12.15;;
82560;SDS011;72228;51.208;10.468;2024-03-02T03:32:25;27.40;;;12.32;;
82560;SDS011;72228;51.208;10.468;2024-03-02T03:34:51;31.95;;;13.13;;
82560;SDS011;72228;51.208;10.468;2024-03-02T03:37:16;27.83;;;11.90;;
82560;SDS011;72228;51.208;10.468;2024-03-02T03:39:42;28.13;;;12.65;;
82560;SDS011;72228;51.208;10.468;2024-03-02T03:42:08;25.95;;;11.98;;
82560;SDS011;72228;51.208;10.468;2024-03-02T03:44:34;26.55;;;11.45;;
82560;SDS011;72228;51.208;10.468;2024-03-02T03:47:00;27.27;;;12.48;;
82560;SDS011;72228;51.208;10.468;2024-03-02T03:49:27;24.58;;;11.55;;
82560;SDS011;72228;51.208;10.468;2024-03-02T03:51:53;21.63;;;11.02;;
82560;SDS011;72228;51.208;10.468;2024-03-02T03:54:19;25.73;;;13.27;;
82560;SDS011;72228;51.208;10.468;2024-03-02T03:56:45;32.70;;;12.77;;
82560;SDS011;72228;51.208;10.468;2024-03-02T03:59:11;30.13;;;12.20;;
82560;SDS011;72228;51.208;10.468;2024-03-02T04:01:37;23.92;;;12.55;;
82560;SDS011;72228;51.208;10.468;2024-03-02T04:04:03;26.40;;;11.48;;
82560;SDS011;72228;51.208;10.468;2024-03-02T04:06:29;26.52;;;11.63;;
82560;SDS011;72228;51.208;10.468;2024-03-02T04:08:58;29.15;;;12.23;;
82560;SDS011;72228;51.208;10.468;2024-03-02T04:13:56;24.02;;;12.00;;
82560;SDS011;72228;51.208;10.468;2024-03-02T04:16:22;23.50;;;10.77;;
82560;SDS011;72228;51.208;10.468;2024-03-02T04:18:48;24.65;;;12.63;;
82560;SDS011;72228;51.208;10.468;2024-03-02T04:21:14;30.17;;;13.73;;
82560;SDS011;72228;51.208;10.468;2024-03-02T04:23:40;26.40;;;11.70;;
82560;SDS011;72228;51.208;10.468;2024-03-02T04:26:05;28.77;;;11.73;;
82560;SDS011;72228;51.208;10.468;2024-03-02T04:28:31;33.97;;;11.90;;
82560;SDS011;72228;51.208;10.468;2024-03-02T04:30:58;23.85;;;11.27;;
82560;SDS011;72228;51.208;10.468;2024-03-02T04:33:24;24.67;;;11.85;;
82560;SDS011;72228;51.208;10.468;2024-03-02T04:35:50;27.10;;;11.43;;
82560;SDS011;72228;51.208;10.468;2024-03-02T04:38:16;22.80;;;12.50;;
82560;SDS011;72228;51.208;10.468;2024-03-02T04:40:41;26.52;;;11.52;;
82560;SDS011;72228;51.208;10.468;2024-03-02T04:43:07;23.13;;;11.45;;
82560;SDS011;72228;51.208;10.468;2024-03-02T04:45:53;23.38;;;11.82;;
82560;SDS011;72228;51.208;10.468;2024-03-02T04:48:18;24.25;;;11.25;;
82560;SDS011;72228;51.208;10.468;2024-03-02T04:50:44;27.52;;;12.20;;
82560;SDS011;72228;51.208;10.468;2024-03-02T04:53:11;26.38;;;11.85;;
82560;SDS011;72228;51.208;10.468;2024-03-02T04:55:36;28.42;;;14.02;;
82560;SDS011;72228;51.208;10.468;2024-03-02T04:58:05;30.75;;;11.77;;
82560;SDS011;72228;51.208;10.468;2024-03-02T05:00:32;29.95;;;11.75;;
82560;SDS011;72228;51.208;10.468;2024-03-02T05:02:58;26.15;;;11.70;;
82560;SDS011;72228;51.208;10.468;2024-03-02T05:05:24;27.92;;;12.13;;
82560;SDS011;72228;51.208;10.468;2024-03-02T05:07:49;28.02;;;12.18;;
82560;SDS011;72228;51.208;10.468;2024-03-02T05:10:15;30.38;;;12.60;;
82560;SDS011;72228;51.208;10.468;2024-03-02T05:12:41;26.90;;;11.88;;
82560;SDS011;72228;51.208;10.468;2024-03-02T05:15:10;23.98;;;11.35;;
82560;SDS011;72228;51.208;10.468;2024-03-02T05:17:37;27.35;;;13.13;;
82560;SDS011;72228;51.208;10.468;2024-03-02T05:20:10;26.85;;;11.90;;
82560;SDS011;72228;51.208;10.468;2024-03-02T05:22:36;24.98;;;12.10;;
82560;SDS011;72228;51.208;10.468;2024-03-02T05:25:03;27.70;;;12.45;;
82560;SDS011;72228;51.208;10.468;2024-03-02T05:27:30;26.60;;;12.30;;
82560;SDS011;72228;51.208;10.468;2024-03-02T05:29:58;28.98;;;13.35;;
82560;SDS011;72228;51.208;10.468;2024-03-02T05:32:27;30.83;;;13.32;;
82560;SDS011;72228;51.208;10.468;2024-03-02T05:34:53;24.45;;;11.98;;
82560;SDS011;72228;51.208;10.468;2024-03-02T05:37:19;32.15;;;15.48;;
82560;SDS011;72228;51.208;10.468;2024-03-02T05:39:45;28.75;;;12.30;;
82560;SDS011;72228;51.208;10.468;2024-03-02T05:42:11;28.35;;;13.60;;
82560;SDS011;72228;51.208;10.468;2024-03-02T05:44:37;29.80;;;12.65;;
82560;SDS011;72228;51.208;10.468;2024-03-02T05:47:03;23.23;;;12.65;;
82560;SDS011;72228;51.208;10.468;2024-03-02T05:49:29;29.73;;;12.32;;
82560;SDS011;72228;51.208;10.468;2024-03-02T05:51:55;26.33;;;11.63;;
82560;SDS011;72228;51.208;10.468;2024-03-02T05:54:21;27.27;;;13.10;;
82560;SDS011;72228;51.208;10.468;2024-03-02T05:56:47;26.92;;;12.05;;
82560;SDS011;72228;51.208;10.468;2024-03-02T05:59:13;24.38;;;12.55;;
82560;SDS011;72228;51.208;10.468;2024-03-02T06:01:39;25.90;;;11.98;;
82560;SDS011;72228;51.208;10.468;2024-03-02T06:04:07;32.42;;;14.50;;
82560;SDS011;72228;51.208;10.468;2024-03-02T06:06:33;27.38;;;12.73;;
82560;SDS011;72228;51.208;10.468;2024-03-02T06:09:02;33.30;;;13.73;;
82560;SDS011;72228;51.208;10.468;2024-03-02T06:11:33;26.42;;;13.23;;
82560;SDS011;72228;51.208;10.468;2024-03-02T06:14:00;26.33;;;12.82;;
82560;SDS011;72228;51.208;10.468;2024-03-02T06:16:26;26.08;;;11.52;;
82560;SDS011;72228;51.208;10.468;2024-03-02T06:18:52;25.58;;;12.98;;
82560;SDS011;72228;51.208;10.468;2024-03-02T06:21:38;22.98;;;10.75;;
82560;SDS011;72228;51.208;10.468;2024-03-02T06:24:08;27.90;;;12.63;;
82560;SDS011;72228;51.208;10.468;2024-03-02T06:26:37;21.50;;;11.70;;
82560;SDS011;72228;51.208;10.468;2024-03-02T06:29:05;25.42;;;12.85;;
82560;SDS011;72228;51.208;10.468;2024-03-02T06:31:31;26.13;;;12.10;;
82560;SDS011;72228;51.208;10.468;2024-03-02T06:34:01;26.80;;;14.00;;
82560;SDS011;72228;51.208;10.468;2024-03-02T06:36:38;26.75;;;13.18;;
82560;SDS011;72228;51.208;10.468;2024-03-02T06:39:08;31.50;;;14.35;;
82560;SDS011;72228;51.208;10.468;2024-03-02T06:41:33;28.92;;;14.40;;
82560;SDS011;72228;51.208;10.468;2024-03-02T06:46:30;24.15;;;11.88;;
82560;SDS011;72228;51.208;10.468;2024-03-02T06:49:08;26.45;;;12.68;;
82560;SDS011;72228;51.208;10.468;2024-03-02T06:51:37;30.27;;;12.70;;
82560;SDS011;72228;51.208;10.468;2024-03-02T06:54:03;29.95;;;14.02;;
82560;SDS011;72228;51.208;10.468;2024-03-02T06:56:31;29.50;;;12.93;;
82560;SDS011;72228;51.208;10.468;2024-03-02T06:59:04;24.98;;;11.55;;
82560;SDS011;72228;51.208;10.468;2024-03-02T07:01:45;32.35;;;13.85;;
82560;SDS011;72228;51.208;10.468;2024-03-02T07:04:24;27.88;;;12.90;;
82560;SDS011;72228;51.208;10.468;2024-03-02T07:06:51;26.85;;;13.30;;
82560;SDS011;72228;51.208;10.468;2024-03-02T07:09:17;29.80;;;14.07;;
82560;SDS011;72228;51.208;10.468;2024-03-02T07:11:42;31.50;;;13.43;;
82560;SDS011;72228;51.208;10.468;2024-03-02T07:14:11;26.00;;;12.57;;
82560;SDS011;72228;51.208;10.468;2024-03-02T07:16:42;32.03;;;13.45;;
82560;SDS011;72228;51.208;10.468;2024-03-02T07:19:10;28.67;;;12.20;;
82560;SDS011;72228;51.208;10.468;2024-03-02T07:21:37;34.75;;;16.60;;
82560;SDS011;72228;51.208;10.468;2024-03-02T07:24:04;32.42;;;14.85;;
82560;SDS011;72228;51.208;10.468;2024-03-02T07:26:32;22.25;;;12.52;;
82560;SDS011;72228;51.208;10.468;2024-03-02T07:28:58;30.45;;;14.20;;
82560;SDS011;72228;51.208;10.468;2024-03-02T07:31:24;43.83;;;19.83;;
82560;SDS011;72228;51.208;10.468;2024-03-02T07:33:50;31.85;;;15.10;;
82560;SDS011;72228;51.208;10.468;2024-03-02T07:36:15;33.40;;;14.52;;
82560;SDS011;72228;51.208;10.468;2024-03-02T07:38:42;30.08;;;13.55;;
82560;SDS011;72228;51.208;10.468;2024-03-02T07:43:36;51.90;;;25.08;;
82560;SDS011;72228;51.208;10.468;2024-03-02T07:46:02;46.60;;;24.17;;
82560;SDS011;72228;51.208;10.468;2024-03-02T07:48:28;36.38;;;17.63;;
82560;SDS011;72228;51.208;10.468;2024-03-02T07:50:54;37.10;;;15.52;;
82560;SDS011;72228;51.208;10.468;2024-03-02T07:53:20;25.20;;;12.55;;
82560;SDS011;72228;51.208;10.468;2024-03-02T07:55:46;24.08;;;12.73;;
82560;SDS011;72228;51.208;10.468;2024-03-02T07:58:12;26.23;;;13.45;;
82560;SDS011;72228;51.208;10.468;2024-03-02T08:00:39;33.35;;;13.30;;
82560;SDS011;72228;51.208;10.468;2024-03-02T08:03:05;25.38;;;14.13;;
82560;SDS011;72228;51.208;10.468;2024-03-02T08:05:32;30.90;;;13.68;;
82560;SDS011;72228;51.208;10.468;2024-03-02T08:07:58;29.10;;;14.13;;
82560;SDS011;72228;51.208;10.468;2024-03-02T08:10:24;31.63;;;14.02;;
82560;SDS011;72228;51.208;10.468;2024-03-02T08:12:50;25.15;;;12.75;;
82560;SDS011;72228;51.208;10.468;2024-03-02T08:15:16;28.35;;;14.00;;
82560;SDS011;72228;51.208;10.468;2024-03-02T08:17:42;25.17;;;13.00;;
82560;SDS011;72228;51.208;10.468;2024-03-02T08:20:11;32.08;;;14.90;;
82560;SDS011;72228;51.208;10.468;2024-03-02T08:22:37;28.02;;;13.45;;
82560;SDS011;72228;51.208;10.468;2024-03-02T08:25:03;28.45;;;13.95;;
82560;SDS011;72228;51.208;10.468;2024-03-02T08:27:30;24.60;;;13.02;;
82560;SDS011;72228;51.208;10.468;2024-03-02T08:29:57;31.33;;;12.95;;
82560;SDS011;72228;51.208;10.468;2024-03-02T08:32:23;29.38;;;13.15;;
82560;SDS011;72228;51.208;10.468;2024-03-02T08:34:49;26.65;;;13.02;;
82560;SDS011;72228;51.208;10.468;2024-03-02T08:37:15;46.85;;;20.05;;
82560;SDS011;72228;51.208;10.468;2024-03-02T08:39:41;40.25;;;19.33;;
82560;SDS011;72228;51.208;10.468;2024-03-02T08:42:07;38.33;;;16.10;;
82560;SDS011;72228;51.208;10.468;2024-03-02T08:44:33;23.60;;;12.18;;
82560;SDS011;72228;51.208;10.468;2024-03-02T08:46:59;55.03;;;24.23;;
82560;SDS011;72228;51.208;10.468;2024-03-02T08:49:25;36.72;;;16.20;;
82560;SDS011;72228;51.208;10.468;2024-03-02T08:51:50;27.40;;;12.98;;
82560;SDS011;72228;51.208;10.468;2024-03-02T08:54:23;24.25;;;11.73;;
82560;SDS011;72228;51.208;10.468;2024-03-02T08:56:49;25.67;;;12.25;;
82560;SDS011;72228;51.208;10.468;2024-03-02T08:59:16;23.60;;;12.85;;
82560;SDS011;72228;51.208;10.468;2024-03-02T09:01:42;23.77;;;11.73;;
82560;SDS011;72228;51.208;10.468;2024-03-02T09:04:08;25.38;;;11.30;;
82560;SDS011;72228;51.208;10.468;2024-03-02T09:06:34;28.60;;;13.38;;
82560;SDS011;72228;51.208;10.468;2024-03-02T09:09:00;21.98;;;11.23;;
82560;SDS011;72228;51.208;10.468;2024-03-02T09:11:26;25.73;;;12.02;;
82560;SDS011;72228;51.208;10.468;2024-03-02T09:13:52;25.05;;;12.40;;
82560;SDS011;72228;51.208;10.468;2024-03-02T09:16:19;22.17;;;12.05;;
82560;SDS011;72228;51.208;10.468;2024-03-02T09:18:45;25.63;;;12.82;;
82560;SDS011;72228;51.208;10.468;2024-03-02T09:21:11;27.50;;;13.98;;
82560;SDS011;72228;51.208;10.468;2024-03-02T09:23:37;26.48;;;12.80;;
82560;SDS011;72228;51.208;10.468;2024-03-02T09:26:03;30.15;;;14.05;;
82560;SDS011;72228;51.208;10.468;2024-03-02T09:28:29;26.00;;;13.18;;
82560;SDS011;72228;51.208;10.468;2024-03-02T09:30:55;26.42;;;13.45;;
82560;SDS011;72228;51.208;10.468;2024-03-02T09:33:21;23.58;;;12.00;;
82560;SDS011;72228;51.208;10.468;2024-03-02T09:35:47;24.25;;;12.23;;
82560;SDS011;72228;51.208;10.468;2024-03-02T09:38:14;25.80;;;12.80;;
82560;SDS011;72228;51.208;10.468;2024-03-02T09:40:41;23.48;;;10.48;;
82560;SDS011;72228;51.208;10.468;2024-03-02T09:43:07;23.67;;;10.93;;
82560;SDS011;72228;51.208;10.468;2024-03-02T09:45:33;23.42;;;11.05;;
82560;SDS011;72228;51.208;10.468;2024-03-02T09:47:59;20.92;;;11.07;;
82560;SDS011;72228;51.208;10.468;2024-03-02T09:50:25;23.05;;;11.50;;
82560;SDS011;72228;51.208;10.468;2024-03-02T09:52:51;24.17;;;11.68;;
82560;SDS011;72228;51.208;10.468;2024-03-02T09:55:18;20.35;;;10.10;;
82560;SDS011;72228;51.208;10.468;2024-03-02T09:57:45;23.15;;;11.20;;
82560;SDS011;72228;51.208;10.468;2024-03-02T10:00:11;22.20;;;11.30;;
82560;SDS011;72228;51.208;10.468;2024-03-02T10:02:40;20.00;;;10.98;;
82560;SDS011;72228;51.208;10.468;2024-03-02T10:05:10;26.00;;;11.48;;
82560;SDS011;72228;51.208;10.468;2024-03-02T10:07:36;22.92;;;10.18;;
82560;SDS011;72228;51.208;10.468;2024-03-02T10:10:14;22.05;;;10.75;;
82560;SDS011;72228;51.208;10.468;2024-03-02T10:12:41;18.98;;;10.07;;
82560;SDS011;72228;51.208;10.468;2024-03-02T10:15:07;20.90;;;9.48;;
82560;SDS011;72228;51.208;10.468;2024-03-02T10:17:34;21.73;;;9.95;;
82560;SDS011;72228;51.208;10.468;2024-03-02T10:20:22;23.15;;;10.65;;
82560;SDS011;72228;51.208;10.468;2024-03-02T10:22:48;18.13;;;9.68;;
82560;SDS011;72228;51.208;10.468;2024-03-02T10:25:30;17.88;;;8.73;;
82560;SDS011;72228;51.208;10.468;2024-03-02T10:27:58;24.88;;;9.85;;
82560;SDS011;72228;51.208;10.468;2024-03-02T10:30:25;17.55;;;8.90;;
82560;SDS011;72228;51.208;10.468;2024-03-02T10:32:55;18.70;;;9.95;;
82560;SDS011;72228;51.208;10.468;2024-03-02T10:35:21;18.20;;;9.30;;
82560;SDS011;72228;51.208;10.468;2024-03-02T10:37:51;19.02;;;10.10;;
82560;SDS011;72228;51.208;10.468;2024-03-02T10:40:18;19.65;;;9.70;;
82560;SDS011;72228;51.208;10.468;2024-03-02T10:42:46;18.05;;;9.57;;
82560;SDS011;72228;51.208;10.468;2024-03-02T10:45:14;19.90;;;10.50;;
82560;SDS011;72228;51.208;10.468;2024-03-02T10:47:44;17.13;;;8.88;;
82560;SDS011;72228;51.208;10.468;2024-03-02T10:50:12;17.23;;;7.97;;
82560;SDS011;72228;51.208;10.468;2024-03-02T10:52:38;20.08;;;9.07;;
82560;SDS011;72228;51.208;10.468;2024-03-02T10:55:05;15.32;;;8.05;;
82560;SDS011;72228;51.208;10.468;2024-03-02T10:57:54;18.77;;;10.00;;
82560;SDS011;72228;51.208;10.468;2024-03-02T11:00:21;17.75;;;8.38;;
82560;SDS011;72228;51.208;10.468;2024-03-02T11:02:58;16.00;;;7.57;;
82560;SDS011;72228;51.208;10.468;2024-03-02T11:05:36;16.60;;;9.30;;
82560;SDS011;72228;51.208;10.468;2024-03-02T11:08:08;16.08;;;8.40;;
82560;SDS011;72228;51.208;10.468;2024-03-02T11:10:42;19.00;;;9.35;;
82560;SDS011;72228;51.208;10.468;2024-03-02T11:13:13;15.05;;;8.55;;
82560;SDS011;72228;51.208;10.468;2024-03-02T11:15:40;17.67;;;8.00;;
82560;SDS011;72228;51.208;10.468;2024-03-02T11:18:10;15.00;;;7.78;;
82560;SDS011;72228;51.208;10.468;2024-03-02T11:20:37;13.32;;;7.93;;
82560;SDS011;72228;51.208;10.468;2024-03-02T11:23:08;15.48;;;8.80;;
82560;SDS011;72228;51.208;10.468;2024-03-02T11:25:35;14.43;;;8.30;;
82560;SDS011;72228;51.208;10.468;2024-03-02T11:28:02;12.85;;;7.47;;
82560;SDS011;72228;51.208;10.468;2024-03-02T11:33:04;14.52;;;7.95;;
82560;SDS011;72228;51.208;10.468;2024-03-02T11:35:37;16.92;;;9.20;;
82560;SDS011;72228;51.208;10.468;2024-03-02T11:38:08;12.23;;;7.43;;
82560;SDS011;72228;51.208;10.468;2024-03-02T11:40:35;15.25;;;7.80;;
82560;SDS011;72228;51.208;10.468;2024-03-02T11:43:01;16.83;;;8.10;;
82560;SDS011;72228;51.208;10.468;2024-03-02T11:45:27;15.00;;;8.02;;
82560;SDS011;72228;51.208;10.468;2024-03-02T11:47:54;13.90;;;7.53;;
82560;SDS011;72228;51.208;10.468;2024-03-02T11:50:33;16.20;;;9.95;;
82560;SDS011;72228;51.208;10.468;2024-03-02T11:53:01;15.23;;;10.23;;
82560;SDS011;72228;51.208;10.468;2024-03-02T11:55:28;18.92;;;9.88;;
82560;SDS011;72228;51.208;10.468;2024-03-02T11:57:55;14.77;;;7.53;;
82560;SDS011;72228;51.208;10.468;2024-03-02T12:00:22;13.95;;;8.40;;
82560;SDS011;72228;51.208;10.468;2024-03-02T12:02:48;12.68;;;7.95;;
82560;SDS011;72228;51.208;10.468;2024-03-02T12:05:29;14.43;;;7.30;;
82560;SDS011;72228;51.208;10.468;2024-03-02T12:07:59;14.57;;;7.85;;
82560;SDS011;72228;51.208;10.468;2024-03-02T12:10:26;11.80;;;7.70;;
82560;SDS011;72228;51.208;10.468;2024-03-02T12:12:59;13.82;;;7.20;;
82560;SDS011;72228;51.208;10.468;2024-03-02T12:15:27;11.35;;;6.20;;
82560;SDS011;72228;51.208;10.468;2024-03-02T12:17:57;16.02;;;7.30;;
82560;SDS011;72228;51.208;10.468;2024-03-02T12:20:26;10.45;;;6.10;;
82560;SDS011;72228;51.208;10.468;2024-03-02T12:22:55;14.73;;;6.97;;
82560;SDS011;72228;51.208;10.468;2024-03-02T12:25:24;10.55;;;6.72;;
82560;SDS011;72228;51.208;10.468;2024-03-02T12:27:54;12.57;;;7.05;;
82560;SDS011;72228;51.208;10.468;2024-03-02T12:30:21;10.70;;;6.00;;
82560;SDS011;72228;51.208;10.468;2024-03-02T12:32:48;10.65;;;5.97;;
82560;SDS011;72228;51.208;10.468;2024-03-02T12:35:14;12.48;;;6.93;;
82560;SDS011;72228;51.208;10.468;2024-03-02T12:40:13;11.75;;;6.78;;
82560;SDS011;72228;51.208;10.468;2024-03-02T12:42:43;11.20;;;6.47;;
82560;SDS011;72228;51.208;10.468;2024-03-02T12:45:11;13.18;;;6.70;;
82560;SDS011;72228;51.208;10.468;2024-03-02T12:47:39;13.90;;;6.78;;
82560;SDS011;72228;51.208;10.468;2024-03-02T12:50:06;10.90;;;6.20;;
82560;SDS011;72228;51.208;10.468;2024-03-02T12:52:33;11.30;;;6.30;;
82560;SDS011;72228;51.208;10.468;2024-03-02T12:55:00;12.90;;;6.72;;
82560;SDS011;72228;51.208;10.468;2024-03-02T12:57:29;12.50;;;5.97;;
82560;SDS011;72228;51.208;10.468;2024-03-02T12:59:59;11.52;;;6.30;;
82560;SDS011;72228;51.208;10.468;2024-03-02T13:02:28;15.43;;;7.63;;
82560;SDS011;72228;51.208;10.468;2024-03-02T13:04:57;11.07;;;6.05;;
82560;SDS011;72228;51.208;10.468;2024-03-02T13:07:24;10.98;;;5.75;;
82560;SDS011;72228;51.208;10.468;2024-03-02T13:09:51;10.88;;;5.88;;
82560;SDS011;72228;51.208;10.468;2024-03-02T13:12:17;10.40;;;5.53;;
82560;SDS011;72228;51.208;10.468;2024-03-02T13:14:47;15.95;;;6.53;;
82560;SDS011;72228;51.208;10.468;2024-03-02T13:17:14;12.98;;;6.93;;
82560;SDS011;72228;51.208;10.468;2024-03-02T13:19:58;13.35;;;6.63;;
82560;SDS011;72228;51.208;10.468;2024-03-02T13:22:25;11.98;;;7.18;;
82560;SDS011;72228;51.208;10.468;2024-03-02T13:24:52;11.70;;;6.53;;
82560;SDS011;72228;51.208;10.468;2024-03-02T13:27:20;12.10;;;6.88;;
82560;SDS011;72228;51.208;10.468;2024-03-02T13:29:46;11.27;;;5.50;;
82560;SDS011;72228;51.208;10.468;2024-03-02T13:32:16;11.38;;;6.55;;
82560;SDS011;72228;51.208;10.468;2024-03-02T13:34:42;12.35;;;6.28;;
82560;SDS011;72228;51.208;10.468;2024-03-02T13:37:09;10.75;;;5.93;;
82560;SDS011;72228;51.208;10.468;2024-03-02T13:39:35;13.55;;;6.15;;
82560;SDS011;72228;51.208;10.468;2024-03-02T13:42:08;12.77;;;6.97;;
82560;SDS011;72228;51.208;10.468;2024-03-02T13:44:36;12.65;;;6.85;;
82560;SDS011;72228;51.208;10.468;2024-03-02T13:47:03;11.02;;;6.47;;
82560;SDS011;72228;51.208;10.468;2024-03-02T13:49:30;12.25;;;6.15;;
82560;SDS011;72228;51.208;10.468;2024-03-02T13:52:07;10.48;;;5.53;;
82560;SDS011;72228;51.208;10.468;2024-03-02T13:54:39;10.05;;;6.57;;
82560;SDS011;72228;51.208;10.468;2024-03-02T13:57:11;12.77;;;6.32;;
82560;SDS011;72228;51.208;10.468;2024-03-02T13:59:38;10.90;;;6.13;;
82560;SDS011;72228;51.208;10.468;2024-03-02T14:02:05;11.85;;;7.00;;
82560;SDS011;72228;51.208;10.468;2024-03-02T14:04:32;11.90;;;5.88;;
82560;SDS011;72228;51.208;10.468;2024-03-02T14:06:59;11.20;;;5.80;;
82560;SDS011;72228;51.208;10.468;2024-03-02T14:09:26;9.70;;;5.25;;
82560;SDS011;72228;51.208;10.468;2024-03-02T14:11:55;11.38;;;5.80;;
82560;SDS011;72228;51.208;10.468;2024-03-02T14:14:22;11.13;;;5.47;;
82560;SDS011;72228;51.208;10.468;2024-03-02T14:16:48;11.45;;;5.75;;
82560;SDS011;72228;51.208;10.468;2024-03-02T14:19:14;9.02;;;5.70;;
82560;SDS011;72228;51.208;10.468;2024-03-02T14:21:40;11.15;;;6.72;;
82560;SDS011;72228;51.208;10.468;2024-03-02T14:24:06;11.20;;;6.28;;
82560;SDS011;72228;51.208;10.468;2024-03-02T14:26:33;10.27;;;5.75;;
82560;SDS011;72228;51.208;10.468;2024-03-02T14:28:59;11.20;;;5.60;;
82560;SDS011;72228;51.208;10.468;2024-03-02T14:31:27;11.32;;;5.85;;
82560;SDS011;72228;51.208;10.468;2024-03-02T14:33:54;14.57;;;7.13;;
82560;SDS011;72228;51.208;10.468;2024-03-02T14:36:20;10.63;;;6.20;;
82560;SDS011;72228;51.208;10.468;2024-03-02T14:38:46;11.48;;;5.60;;
82560;SDS011;72228;51.208;10.468;2024-03-02T14:41:13;9.70;;;6.70;;